Sorel, Canada
Current Conditions -  °F | °C
As of 1:00 AM on Thursday 23 Oct 2014 (Local Time) from CYRQ Reporting Station
Overcast Overcast  
Wind Chill: 36°   Ceiling: 9000
Heat Index: 43°   Visibility: 9mi
Dew Point: 34°   Wind: 13mph
Humidity: 70%   Direction: 40°NE
Pressure: 30.23"   Gusts: NA
Location:  46.04°N, 73.11°W
Report Text: CYRQ 230500Z AUTO 04011KT 9SM OVC090 06/01 A3023 RMK SLP240
Loading
Personal Weather Stations






























Interactive Weather Map
Tropical Storm Tracking
New forecast layout! Learn more

10-Day Weather Forecast

Advertisements
Track Severe Weather on mobile